sensor_id;sensor_type;location;lat;lon;timestamp;P1;durP1;ratioP1;P2;durP2;ratioP2
65315;SDS011;51920;53.952;10.292;2022-09-09T00:04:35;40.58;;;18.27;;
65315;SDS011;51920;53.952;10.292;2022-09-09T00:07:04;39.65;;;18.48;;
65315;SDS011;51920;53.952;10.292;2022-09-09T00:12:48;44.13;;;18.90;;
65315;SDS011;51920;53.952;10.292;2022-09-09T00:15:24;49.35;;;20.48;;
65315;SDS011;51920;53.952;10.292;2022-09-09T00:17:55;51.45;;;21.05;;
65315;SDS011;51920;53.952;10.292;2022-09-09T00:28:31;55.78;;;21.38;;
65315;SDS011;51920;53.952;10.292;2022-09-09T00:31:15;59.90;;;22.40;;
65315;SDS011;51920;53.952;10.292;2022-09-09T00:33:45;62.35;;;21.40;;
65315;SDS011;51920;53.952;10.292;2022-09-09T00:36:13;58.65;;;21.55;;
65315;SDS011;51920;53.952;10.292;2022-09-09T00:38:51;64.73;;;22.93;;
65315;SDS011;51920;53.952;10.292;2022-09-09T00:41:22;66.05;;;22.02;;
65315;SDS011;51920;53.952;10.292;2022-09-09T00:59:55;53.45;;;18.52;;
65315;SDS011;51920;53.952;10.292;2022-09-09T01:05:33;62.67;;;21.47;;
65315;SDS011;51920;53.952;10.292;2022-09-09T01:08:06;62.15;;;21.15;;
65315;SDS011;51920;53.952;10.292;2022-09-09T01:10:47;69.15;;;22.10;;
65315;SDS011;51920;53.952;10.292;2022-09-09T01:13:22;64.53;;;21.38;;
65315;SDS011;51920;53.952;10.292;2022-09-09T01:16:03;68.18;;;21.23;;
65315;SDS011;51920;53.952;10.292;2022-09-09T01:18:36;66.97;;;21.07;;
65315;SDS011;51920;53.952;10.292;2022-09-09T01:27:21;68.55;;;20.60;;
65315;SDS011;51920;53.952;10.292;2022-09-09T01:29:49;67.93;;;21.38;;
65315;SDS011;51920;53.952;10.292;2022-09-09T01:32:39;71.83;;;21.63;;
65315;SDS011;51920;53.952;10.292;2022-09-09T01:35:08;68.82;;;21.30;;
65315;SDS011;51920;53.952;10.292;2022-09-09T01:37:57;71.40;;;21.88;;
65315;SDS011;51920;53.952;10.292;2022-09-09T01:40:23;68.20;;;20.77;;
65315;SDS011;51920;53.952;10.292;2022-09-09T01:42:51;73.57;;;21.23;;
65315;SDS011;51920;53.952;10.292;2022-09-09T01:45:17;63.95;;;19.70;;
65315;SDS011;51920;53.952;10.292;2022-09-09T01:47:42;65.35;;;19.65;;
65315;SDS011;51920;53.952;10.292;2022-09-09T01:50:34;69.53;;;19.90;;
65315;SDS011;51920;53.952;10.292;2022-09-09T01:53:00;59.42;;;18.45;;
65315;SDS011;51920;53.952;10.292;2022-09-09T01:55:36;62.13;;;19.95;;
65315;SDS011;51920;53.952;10.292;2022-09-09T02:01:09;61.45;;;19.05;;
65315;SDS011;51920;53.952;10.292;2022-09-09T02:03:44;59.93;;;17.90;;
65315;SDS011;51920;53.952;10.292;2022-09-09T02:09:07;67.47;;;20.40;;
65315;SDS011;51920;53.952;10.292;2022-09-09T02:11:38;64.95;;;18.70;;
65315;SDS011;51920;53.952;10.292;2022-09-09T02:14:27;66.57;;;19.70;;
65315;SDS011;51920;53.952;10.292;2022-09-09T02:17:01;54.23;;;15.40;;
65315;SDS011;51920;53.952;10.292;2022-09-09T02:20:09;64.85;;;19.10;;
65315;SDS011;51920;53.952;10.292;2022-09-09T02:22:49;56.40;;;17.65;;
65315;SDS011;51920;53.952;10.292;2022-09-09T02:25:18;58.95;;;17.85;;
65315;SDS011;51920;53.952;10.292;2022-09-09T02:27:48;60.22;;;16.95;;
65315;SDS011;51920;53.952;10.292;2022-09-09T02:30:16;63.17;;;17.33;;
65315;SDS011;51920;53.952;10.292;2022-09-09T02:32:50;59.45;;;16.63;;
65315;SDS011;51920;53.952;10.292;2022-09-09T02:35:23;56.58;;;16.45;;
65315;SDS011;51920;53.952;10.292;2022-09-09T02:37:50;64.38;;;17.60;;
65315;SDS011;51920;53.952;10.292;2022-09-09T02:40:18;69.65;;;18.60;;
65315;SDS011;51920;53.952;10.292;2022-09-09T02:42:48;62.73;;;17.77;;
65315;SDS011;51920;53.952;10.292;2022-09-09T02:45:16;69.75;;;19.30;;
65315;SDS011;51920;53.952;10.292;2022-09-09T02:47:48;69.68;;;18.77;;
65315;SDS011;51920;53.952;10.292;2022-09-09T02:50:17;56.47;;;16.95;;
65315;SDS011;51920;53.952;10.292;2022-09-09T02:58:37;66.25;;;17.63;;
65315;SDS011;51920;53.952;10.292;2022-09-09T03:01:05;60.95;;;17.58;;
65315;SDS011;51920;53.952;10.292;2022-09-09T03:03:30;63.93;;;18.03;;
65315;SDS011;51920;53.952;10.292;2022-09-09T03:05:59;62.70;;;16.92;;
65315;SDS011;51920;53.952;10.292;2022-09-09T03:08:26;57.80;;;17.88;;
65315;SDS011;51920;53.952;10.292;2022-09-09T03:10:54;58.15;;;16.77;;
65315;SDS011;51920;53.952;10.292;2022-09-09T03:13:20;55.33;;;16.45;;
65315;SDS011;51920;53.952;10.292;2022-09-09T03:15:47;56.93;;;16.23;;
65315;SDS011;51920;53.952;10.292;2022-09-09T03:18:16;56.58;;;17.23;;
65315;SDS011;51920;53.952;10.292;2022-09-09T03:20:45;55.72;;;16.23;;
65315;SDS011;51920;53.952;10.292;2022-09-09T03:23:14;56.08;;;16.90;;
65315;SDS011;51920;53.952;10.292;2022-09-09T03:25:45;52.13;;;15.80;;
65315;SDS011;51920;53.952;10.292;2022-09-09T03:28:12;62.03;;;17.65;;
65315;SDS011;51920;53.952;10.292;2022-09-09T03:30:38;61.38;;;17.00;;
65315;SDS011;51920;53.952;10.292;2022-09-09T03:33:03;58.30;;;16.50;;
65315;SDS011;51920;53.952;10.292;2022-09-09T03:35:32;57.00;;;16.55;;
65315;SDS011;51920;53.952;10.292;2022-09-09T03:37:58;65.43;;;18.37;;
65315;SDS011;51920;53.952;10.292;2022-09-09T03:40:24;59.35;;;16.88;;
65315;SDS011;51920;53.952;10.292;2022-09-09T03:42:49;60.70;;;17.67;;
65315;SDS011;51920;53.952;10.292;2022-09-09T03:45:16;61.55;;;17.50;;
65315;SDS011;51920;53.952;10.292;2022-09-09T03:47:42;66.33;;;18.47;;
65315;SDS011;51920;53.952;10.292;2022-09-09T03:50:08;62.10;;;17.92;;
65315;SDS011;51920;53.952;10.292;2022-09-09T03:52:38;59.08;;;18.40;;
65315;SDS011;51920;53.952;10.292;2022-09-09T03:55:10;62.97;;;18.30;;
65315;SDS011;51920;53.952;10.292;2022-09-09T03:57:36;62.72;;;18.30;;
65315;SDS011;51920;53.952;10.292;2022-09-09T04:00:04;56.97;;;17.58;;
65315;SDS011;51920;53.952;10.292;2022-09-09T04:02:41;64.15;;;19.13;;
65315;SDS011;51920;53.952;10.292;2022-09-09T04:05:09;60.70;;;18.37;;
65315;SDS011;51920;53.952;10.292;2022-09-09T04:07:36;58.28;;;18.58;;
65315;SDS011;51920;53.952;10.292;2022-09-09T04:10:02;65.78;;;20.42;;
65315;SDS011;51920;53.952;10.292;2022-09-09T04:12:28;60.63;;;18.17;;
65315;SDS011;51920;53.952;10.292;2022-09-09T04:14:54;56.65;;;17.98;;
65315;SDS011;51920;53.952;10.292;2022-09-09T04:17:20;58.53;;;18.47;;
65315;SDS011;51920;53.952;10.292;2022-09-09T04:19:45;61.75;;;19.75;;
65315;SDS011;51920;53.952;10.292;2022-09-09T04:22:12;60.30;;;19.58;;
65315;SDS011;51920;53.952;10.292;2022-09-09T04:24:37;59.03;;;19.20;;
65315;SDS011;51920;53.952;10.292;2022-09-09T04:27:03;64.20;;;20.53;;
65315;SDS011;51920;53.952;10.292;2022-09-09T04:29:29;55.65;;;18.52;;
65315;SDS011;51920;53.952;10.292;2022-09-09T04:31:54;64.23;;;20.77;;
65315;SDS011;51920;53.952;10.292;2022-09-09T04:34:20;60.95;;;19.85;;
65315;SDS011;51920;53.952;10.292;2022-09-09T04:36:46;63.08;;;20.20;;
65315;SDS011;51920;53.952;10.292;2022-09-09T04:39:12;63.93;;;20.23;;
65315;SDS011;51920;53.952;10.292;2022-09-09T04:41:37;59.43;;;19.37;;
65315;SDS011;51920;53.952;10.292;2022-09-09T04:44:03;55.47;;;19.13;;
65315;SDS011;51920;53.952;10.292;2022-09-09T04:46:28;63.17;;;19.90;;
65315;SDS011;51920;53.952;10.292;2022-09-09T04:48:55;61.30;;;19.95;;
65315;SDS011;51920;53.952;10.292;2022-09-09T04:51:25;57.13;;;19.30;;
65315;SDS011;51920;53.952;10.292;2022-09-09T04:53:51;61.87;;;19.57;;
65315;SDS011;51920;53.952;10.292;2022-09-09T04:56:19;53.58;;;18.63;;
65315;SDS011;51920;53.952;10.292;2022-09-09T04:58:52;54.53;;;19.23;;
65315;SDS011;51920;53.952;10.292;2022-09-09T05:01:21;50.53;;;18.20;;
65315;SDS011;51920;53.952;10.292;2022-09-09T05:03:49;51.60;;;18.17;;
65315;SDS011;51920;53.952;10.292;2022-09-09T05:06:18;52.90;;;17.77;;
65315;SDS011;51920;53.952;10.292;2022-09-09T05:08:48;51.15;;;17.98;;
65315;SDS011;51920;53.952;10.292;2022-09-09T05:11:18;51.58;;;17.90;;
65315;SDS011;51920;53.952;10.292;2022-09-09T05:13:48;52.63;;;17.90;;
65315;SDS011;51920;53.952;10.292;2022-09-09T05:16:16;54.08;;;19.02;;
65315;SDS011;51920;53.952;10.292;2022-09-09T05:18:43;55.63;;;19.23;;
65315;SDS011;51920;53.952;10.292;2022-09-09T05:21:10;59.10;;;19.73;;
65315;SDS011;51920;53.952;10.292;2022-09-09T05:23:36;56.17;;;19.15;;
65315;SDS011;51920;53.952;10.292;2022-09-09T05:26:02;54.00;;;18.73;;
65315;SDS011;51920;53.952;10.292;2022-09-09T05:28:29;59.40;;;19.58;;
65315;SDS011;51920;53.952;10.292;2022-09-09T05:30:59;53.17;;;19.93;;
65315;SDS011;51920;53.952;10.292;2022-09-09T05:33:27;52.53;;;19.52;;
65315;SDS011;51920;53.952;10.292;2022-09-09T05:35:56;59.22;;;20.88;;
65315;SDS011;51920;53.952;10.292;2022-09-09T05:38:23;49.20;;;18.70;;
65315;SDS011;51920;53.952;10.292;2022-09-09T05:40:51;53.08;;;18.85;;
65315;SDS011;51920;53.952;10.292;2022-09-09T05:43:18;46.63;;;17.63;;
65315;SDS011;51920;53.952;10.292;2022-09-09T05:45:48;45.55;;;17.25;;
65315;SDS011;51920;53.952;10.292;2022-09-09T05:48:27;45.88;;;18.77;;
65315;SDS011;51920;53.952;10.292;2022-09-09T05:50:54;44.47;;;17.85;;
65315;SDS011;51920;53.952;10.292;2022-09-09T05:53:20;46.43;;;18.97;;
65315;SDS011;51920;53.952;10.292;2022-09-09T05:55:46;46.28;;;18.77;;
65315;SDS011;51920;53.952;10.292;2022-09-09T05:58:12;46.97;;;18.40;;
65315;SDS011;51920;53.952;10.292;2022-09-09T06:00:39;43.88;;;17.63;;
65315;SDS011;51920;53.952;10.292;2022-09-09T06:03:05;41.27;;;17.50;;
65315;SDS011;51920;53.952;10.292;2022-09-09T06:05:30;40.30;;;17.73;;
65315;SDS011;51920;53.952;10.292;2022-09-09T06:07:56;35.63;;;16.30;;
65315;SDS011;51920;53.952;10.292;2022-09-09T06:10:22;37.57;;;16.97;;
65315;SDS011;51920;53.952;10.292;2022-09-09T06:12:48;36.95;;;16.58;;
65315;SDS011;51920;53.952;10.292;2022-09-09T06:15:13;34.70;;;16.63;;
65315;SDS011;51920;53.952;10.292;2022-09-09T06:17:38;35.00;;;15.97;;
65315;SDS011;51920;53.952;10.292;2022-09-09T06:20:04;31.42;;;14.80;;
65315;SDS011;51920;53.952;10.292;2022-09-09T06:22:31;31.70;;;15.55;;
65315;SDS011;51920;53.952;10.292;2022-09-09T06:24:56;29.23;;;14.30;;
65315;SDS011;51920;53.952;10.292;2022-09-09T06:27:22;29.73;;;14.03;;
65315;SDS011;51920;53.952;10.292;2022-09-09T06:29:47;29.83;;;14.10;;
65315;SDS011;51920;53.952;10.292;2022-09-09T06:32:14;29.98;;;14.07;;
65315;SDS011;51920;53.952;10.292;2022-09-09T06:34:40;29.07;;;13.97;;
65315;SDS011;51920;53.952;10.292;2022-09-09T06:37:05;28.58;;;14.20;;
65315;SDS011;51920;53.952;10.292;2022-09-09T06:39:37;29.57;;;14.53;;
65315;SDS011;51920;53.952;10.292;2022-09-09T06:42:02;30.23;;;14.60;;
65315;SDS011;51920;53.952;10.292;2022-09-09T06:44:44;30.50;;;14.43;;
65315;SDS011;51920;53.952;10.292;2022-09-09T06:47:14;29.02;;;14.80;;
65315;SDS011;51920;53.952;10.292;2022-09-09T06:49:41;27.25;;;13.68;;
65315;SDS011;51920;53.952;10.292;2022-09-09T06:52:09;27.90;;;14.00;;
65315;SDS011;51920;53.952;10.292;2022-09-09T06:54:34;30.13;;;14.57;;
65315;SDS011;51920;53.952;10.292;2022-09-09T06:57:03;25.85;;;13.18;;
65315;SDS011;51920;53.952;10.292;2022-09-09T06:59:28;27.63;;;13.97;;
65315;SDS011;51920;53.952;10.292;2022-09-09T07:01:57;25.00;;;13.13;;
65315;SDS011;51920;53.952;10.292;2022-09-09T07:04:23;23.55;;;12.43;;
65315;SDS011;51920;53.952;10.292;2022-09-09T07:06:50;22.67;;;12.60;;
65315;SDS011;51920;53.952;10.292;2022-09-09T07:09:21;23.03;;;12.67;;
65315;SDS011;51920;53.952;10.292;2022-09-09T07:11:49;23.08;;;12.02;;
65315;SDS011;51920;53.952;10.292;2022-09-09T07:14:18;22.17;;;12.10;;
65315;SDS011;51920;53.952;10.292;2022-09-09T07:16:47;20.80;;;11.57;;
65315;SDS011;51920;53.952;10.292;2022-09-09T07:19:15;19.40;;;11.20;;
65315;SDS011;51920;53.952;10.292;2022-09-09T07:21:41;22.33;;;11.57;;
65315;SDS011;51920;53.952;10.292;2022-09-09T07:24:09;21.50;;;10.95;;
65315;SDS011;51920;53.952;10.292;2022-09-09T07:26:38;16.50;;;10.20;;
65315;SDS011;51920;53.952;10.292;2022-09-09T07:29:04;17.10;;;10.15;;
65315;SDS011;51920;53.952;10.292;2022-09-09T07:31:32;16.42;;;9.82;;
65315;SDS011;51920;53.952;10.292;2022-09-09T07:34:03;18.27;;;9.83;;
65315;SDS011;51920;53.952;10.292;2022-09-09T07:36:31;15.38;;;9.65;;
65315;SDS011;51920;53.952;10.292;2022-09-09T07:39:08;17.92;;;10.57;;
65315;SDS011;51920;53.952;10.292;2022-09-09T07:41:37;14.88;;;8.70;;
65315;SDS011;51920;53.952;10.292;2022-09-09T07:44:19;14.52;;;8.80;;
65315;SDS011;51920;53.952;10.292;2022-09-09T07:46:49;15.97;;;9.30;;
65315;SDS011;51920;53.952;10.292;2022-09-09T07:49:19;16.00;;;9.55;;
65315;SDS011;51920;53.952;10.292;2022-09-09T07:51:46;18.10;;;9.05;;
65315;SDS011;51920;53.952;10.292;2022-09-09T07:54:14;17.03;;;8.50;;
65315;SDS011;51920;53.952;10.292;2022-09-09T07:56:43;13.90;;;8.43;;
65315;SDS011;51920;53.952;10.292;2022-09-09T07:59:10;13.40;;;8.38;;
65315;SDS011;51920;53.952;10.292;2022-09-09T08:01:39;12.88;;;8.15;;
65315;SDS011;51920;53.952;10.292;2022-09-09T08:04:13;13.60;;;8.77;;
65315;SDS011;51920;53.952;10.292;2022-09-09T08:06:48;13.97;;;8.20;;
65315;SDS011;51920;53.952;10.292;2022-09-09T08:09:17;13.15;;;8.18;;
65315;SDS011;51920;53.952;10.292;2022-09-09T08:11:44;11.85;;;8.40;;
65315;SDS011;51920;53.952;10.292;2022-09-09T08:14:11;10.90;;;7.90;;
65315;SDS011;51920;53.952;10.292;2022-09-09T08:16:38;12.57;;;7.95;;
65315;SDS011;51920;53.952;10.292;2022-09-09T08:19:15;11.13;;;7.97;;
65315;SDS011;51920;53.952;10.292;2022-09-09T08:21:42;10.82;;;7.68;;
65315;SDS011;51920;53.952;10.292;2022-09-09T08:24:10;11.45;;;7.63;;
65315;SDS011;51920;53.952;10.292;2022-09-09T08:26:39;10.93;;;8.30;;
65315;SDS011;51920;53.952;10.292;2022-09-09T08:29:11;12.63;;;8.23;;
65315;SDS011;51920;53.952;10.292;2022-09-09T08:31:43;12.20;;;7.82;;
65315;SDS011;51920;53.952;10.292;2022-09-09T08:34:09;10.30;;;7.82;;
65315;SDS011;51920;53.952;10.292;2022-09-09T08:36:37;10.45;;;7.63;;
65315;SDS011;51920;53.952;10.292;2022-09-09T08:39:08;12.43;;;8.73;;
65315;SDS011;51920;53.952;10.292;2022-09-09T08:50:23;11.88;;;7.78;;
65315;SDS011;51920;53.952;10.292;2022-09-09T08:53:02;9.77;;;7.73;;
65315;SDS011;51920;53.952;10.292;2022-09-09T08:58:13;9.82;;;7.50;;
65315;SDS011;51920;53.952;10.292;2022-09-09T09:00:44;10.43;;;7.78;;
65315;SDS011;51920;53.952;10.292;2022-09-09T09:03:21;10.70;;;7.90;;
65315;SDS011;51920;53.952;10.292;2022-09-09T09:08:51;10.13;;;7.18;;
65315;SDS011;51920;53.952;10.292;2022-09-09T09:11:24;8.38;;;7.30;;
65315;SDS011;51920;53.952;10.292;2022-09-09T09:13:58;9.93;;;6.87;;
65315;SDS011;51920;53.952;10.292;2022-09-09T09:19:11;8.73;;;6.82;;
65315;SDS011;51920;53.952;10.292;2022-09-09T09:24:38;9.25;;;7.13;;
65315;SDS011;51920;53.952;10.292;2022-09-09T09:27:14;8.60;;;6.82;;
65315;SDS011;51920;53.952;10.292;2022-09-09T09:29:48;11.77;;;7.60;;
65315;SDS011;51920;53.952;10.292;2022-09-09T09:32:16;9.35;;;6.90;;
65315;SDS011;51920;53.952;10.292;2022-09-09T09:34:57;9.95;;;7.50;;
65315;SDS011;51920;53.952;10.292;2022-09-09T09:37:32;9.65;;;7.10;;
65315;SDS011;51920;53.952;10.292;2022-09-09T09:40:09;8.35;;;6.80;;
65315;SDS011;51920;53.952;10.292;2022-09-09T09:45:26;8.45;;;6.47;;
65315;SDS011;51920;53.952;10.292;2022-09-09T09:47:59;7.72;;;5.65;;
65315;SDS011;51920;53.952;10.292;2022-09-09T09:50:28;9.27;;;7.18;;
65315;SDS011;51920;53.952;10.292;2022-09-09T09:52:58;7.85;;;6.75;;
65315;SDS011;51920;53.952;10.292;2022-09-09T09:55:28;8.73;;;6.50;;
65315;SDS011;51920;53.952;10.292;2022-09-09T09:58:03;8.02;;;6.72;;
65315;SDS011;51920;53.952;10.292;2022-09-09T10:00:29;10.38;;;7.00;;
65315;SDS011;51920;53.952;10.292;2022-09-09T10:03:12;7.38;;;6.18;;
65315;SDS011;51920;53.952;10.292;2022-09-09T10:05:46;7.63;;;5.93;;
65315;SDS011;51920;53.952;10.292;2022-09-09T10:08:13;6.80;;;6.10;;
65315;SDS011;51920;53.952;10.292;2022-09-09T10:10:50;7.43;;;5.95;;
65315;SDS011;51920;53.952;10.292;2022-09-09T10:13:29;5.90;;;5.30;;
65315;SDS011;51920;53.952;10.292;2022-09-09T10:16:22;8.70;;;5.57;;
65315;SDS011;51920;53.952;10.292;2022-09-09T10:22:26;5.68;;;4.80;;
65315;SDS011;51920;53.952;10.292;2022-09-09T10:27:31;5.40;;;4.28;;
65315;SDS011;51920;53.952;10.292;2022-09-09T10:30:17;4.43;;;3.40;;
65315;SDS011;51920;53.952;10.292;2022-09-09T10:32:46;5.40;;;3.70;;
65315;SDS011;51920;53.952;10.292;2022-09-09T10:35:23;4.93;;;3.75;;
65315;SDS011;51920;53.952;10.292;2022-09-09T10:40:34;4.13;;;3.20;;
65315;SDS011;51920;53.952;10.292;2022-09-09T10:57:22;5.13;;;2.45;;
65315;SDS011;51920;53.952;10.292;2022-09-09T10:59:55;4.38;;;2.53;;
65315;SDS011;51920;53.952;10.292;2022-09-09T11:02:29;3.10;;;2.13;;
65315;SDS011;51920;53.952;10.292;2022-09-09T11:05:01;5.55;;;2.60;;
65315;SDS011;51920;53.952;10.292;2022-09-09T11:07:35;3.90;;;1.90;;
65315;SDS011;51920;53.952;10.292;2022-09-09T11:10:07;2.60;;;1.80;;
65315;SDS011;51920;53.952;10.292;2022-09-09T11:13:03;2.97;;;2.00;;
65315;SDS011;51920;53.952;10.292;2022-09-09T11:15:35;53.77;;;29.73;;
65315;SDS011;51920;53.952;10.292;2022-09-09T11:18:06;9.60;;;5.75;;
65315;SDS011;51920;53.952;10.292;2022-09-09T11:20:38;16.63;;;9.93;;
65315;SDS011;51920;53.952;10.292;2022-09-09T11:23:05;4.67;;;3.43;;
65315;SDS011;51920;53.952;10.292;2022-09-09T11:25:50;4.00;;;2.73;;
65315;SDS011;51920;53.952;10.292;2022-09-09T11:33:41;3.10;;;1.98;;
65315;SDS011;51920;53.952;10.292;2022-09-09T11:36:22;3.45;;;2.00;;
65315;SDS011;51920;53.952;10.292;2022-09-09T11:38:52;5.03;;;2.03;;
65315;SDS011;51920;53.952;10.292;2022-09-09T11:41:22;3.85;;;2.20;;
65315;SDS011;51920;53.952;10.292;2022-09-09T11:43:48;3.73;;;1.90;;
65315;SDS011;51920;53.952;10.292;2022-09-09T11:46:19;3.53;;;1.90;;
65315;SDS011;51920;53.952;10.292;2022-09-09T11:48:58;2.70;;;1.80;;
65315;SDS011;51920;53.952;10.292;2022-09-09T11:51:26;3.95;;;1.80;;
65315;SDS011;51920;53.952;10.292;2022-09-09T11:53:54;4.40;;;1.80;;
65315;SDS011;51920;53.952;10.292;2022-09-09T11:56:42;2.53;;;1.60;;
65315;SDS011;51920;53.952;10.292;2022-09-09T11:59:29;3.30;;;1.63;;
65315;SDS011;51920;53.952;10.292;2022-09-09T12:01:59;2.72;;;1.80;;
65315;SDS011;51920;53.952;10.292;2022-09-09T12:04:35;4.18;;;2.20;;
65315;SDS011;51920;53.952;10.292;2022-09-09T12:07:21;2.67;;;1.83;;
65315;SDS011;51920;53.952;10.292;2022-09-09T12:12:44;3.53;;;2.10;;
65315;SDS011;51920;53.952;10.292;2022-09-09T12:17:45;4.33;;;1.77;;
65315;SDS011;51920;53.952;10.292;2022-09-09T12:20:17;2.65;;;1.65;;
65315;SDS011;51920;53.952;10.292;2022-09-09T12:22:51;2.70;;;1.80;;
65315;SDS011;51920;53.952;10.292;2022-09-09T12:31:04;2.92;;;1.60;;
65315;SDS011;51920;53.952;10.292;2022-09-09T12:33:36;4.63;;;2.07;;
65315;SDS011;51920;53.952;10.292;2022-09-09T12:36:10;3.80;;;2.20;;
65315;SDS011;51920;53.952;10.292;2022-09-09T12:38:40;6.47;;;2.20;;
65315;SDS011;51920;53.952;10.292;2022-09-09T12:41:20;3.67;;;1.60;;
65315;SDS011;51920;53.952;10.292;2022-09-09T12:43:47;4.13;;;2.15;;
65315;SDS011;51920;53.952;10.292;2022-09-09T12:46:18;4.73;;;2.67;;
65315;SDS011;51920;53.952;10.292;2022-09-09T12:48:51;3.95;;;3.03;;
65315;SDS011;51920;53.952;10.292;2022-09-09T12:51:27;3.72;;;2.13;;
65315;SDS011;51920;53.952;10.292;2022-09-09T12:53:55;2.42;;;1.83;;
65315;SDS011;51920;53.952;10.292;2022-09-09T12:56:22;2.05;;;1.30;;
65315;SDS011;51920;53.952;10.292;2022-09-09T12:58:51;2.43;;;1.40;;
65315;SDS011;51920;53.952;10.292;2022-09-09T13:01:23;2.15;;;1.40;;
65315;SDS011;51920;53.952;10.292;2022-09-09T13:03:50;2.67;;;1.80;;
65315;SDS011;51920;53.952;10.292;2022-09-09T13:06:20;3.03;;;1.40;;
65315;SDS011;51920;53.952;10.292;2022-09-09T13:08:50;2.83;;;1.45;;
65315;SDS011;51920;53.952;10.292;2022-09-09T13:11:18;3.00;;;1.40;;
65315;SDS011;51920;53.952;10.292;2022-09-09T13:13:55;2.00;;;1.30;;
65315;SDS011;51920;53.952;10.292;2022-09-09T13:16:30;1.90;;;1.50;;
65315;SDS011;51920;53.952;10.292;2022-09-09T13:19:08;3.53;;;1.60;;
65315;SDS011;51920;53.952;10.292;2022-09-09T13:21:39;3.10;;;1.60;;
65315;SDS011;51920;53.952;10.292;2022-09-09T13:24:05;3.53;;;2.00;;
65315;SDS011;51920;53.952;10.292;2022-09-09T13:26:33;3.28;;;1.73;;
65315;SDS011;51920;53.952;10.292;2022-09-09T13:29:18;3.00;;;1.77;;
65315;SDS011;51920;53.952;10.292;2022-09-09T13:31:44;3.07;;;1.80;;
65315;SDS011;51920;53.952;10.292;2022-09-09T13:34:10;2.85;;;1.88;;
65315;SDS011;51920;53.952;10.292;2022-09-09T13:36:58;4.35;;;2.00;;
65315;SDS011;51920;53.952;10.292;2022-09-09T13:39:27;2.45;;;1.70;;
65315;SDS011;51920;53.952;10.292;2022-09-09T13:41:53;2.03;;;1.40;;
65315;SDS011;51920;53.952;10.292;2022-09-09T13:44:28;2.80;;;1.85;;
65315;SDS011;51920;53.952;10.292;2022-09-09T13:47:15;2.47;;;1.80;;
65315;SDS011;51920;53.952;10.292;2022-09-09T13:49:44;1.90;;;1.70;;
65315;SDS011;51920;53.952;10.292;2022-09-09T13:52:17;3.58;;;1.75;;
65315;SDS011;51920;53.952;10.292;2022-09-09T13:54:50;2.55;;;1.83;;
65315;SDS011;51920;53.952;10.292;2022-09-09T13:57:17;4.78;;;2.10;;
65315;SDS011;51920;53.952;10.292;2022-09-09T13:59:45;4.32;;;2.60;;
65315;SDS011;51920;53.952;10.292;2022-09-09T14:02:11;5.23;;;2.47;;
65315;SDS011;51920;53.952;10.292;2022-09-09T14:04:36;4.82;;;2.90;;
65315;SDS011;51920;53.952;10.292;2022-09-09T14:07:02;2.87;;;2.10;;
65315;SDS011;51920;53.952;10.292;2022-09-09T14:09:28;3.15;;;2.13;;
65315;SDS011;51920;53.952;10.292;2022-09-09T14:11:54;3.93;;;2.10;;
65315;SDS011;51920;53.952;10.292;2022-09-09T14:14:20;2.20;;;2.00;;
65315;SDS011;51920;53.952;10.292;2022-09-09T14:16:46;2.28;;;1.80;;
65315;SDS011;51920;53.952;10.292;2022-09-09T14:19:11;2.90;;;2.00;;
65315;SDS011;51920;53.952;10.292;2022-09-09T14:21:37;2.97;;;2.08;;
65315;SDS011;51920;53.952;10.292;2022-09-09T14:24:02;2.90;;;2.40;;
65315;SDS011;51920;53.952;10.292;2022-09-09T14:26:28;2.80;;;2.50;;
65315;SDS011;51920;53.952;10.292;2022-09-09T14:28:55;5.13;;;3.50;;
65315;SDS011;51920;53.952;10.292;2022-09-09T14:31:21;3.20;;;2.17;;
65315;SDS011;51920;53.952;10.292;2022-09-09T14:33:47;4.22;;;2.22;;
65315;SDS011;51920;53.952;10.292;2022-09-09T14:36:13;3.20;;;2.17;;
65315;SDS011;51920;53.952;10.292;2022-09-09T14:38:40;9.98;;;2.20;;
65315;SDS011;51920;53.952;10.292;2022-09-09T14:41:07;3.30;;;2.00;;
65315;SDS011;51920;53.952;10.292;2022-09-09T14:43:34;3.93;;;2.50;;
65315;SDS011;51920;53.952;10.292;2022-09-09T14:46:06;3.33;;;2.33;;
65315;SDS011;51920;53.952;10.292;2022-09-09T14:48:33;3.30;;;2.37;;
65315;SDS011;51920;53.952;10.292;2022-09-09T14:51:06;4.50;;;2.10;;
65315;SDS011;51920;53.952;10.292;2022-09-09T14:53:39;3.15;;;2.10;;
65315;SDS011;51920;53.952;10.292;2022-09-09T14:56:09;3.63;;;2.25;;
65315;SDS011;51920;53.952;10.292;2022-09-09T14:58:45;3.40;;;2.30;;
65315;SDS011;51920;53.952;10.292;2022-09-09T15:01:12;2.63;;;2.20;;
65315;SDS011;51920;53.952;10.292;2022-09-09T15:03:40;3.10;;;2.15;;
65315;SDS011;51920;53.952;10.292;2022-09-09T15:06:10;4.40;;;2.42;;
65315;SDS011;51920;53.952;10.292;2022-09-09T15:08:37;3.95;;;2.63;;
65315;SDS011;51920;53.952;10.292;2022-09-09T15:11:06;4.35;;;2.40;;
65315;SDS011;51920;53.952;10.292;2022-09-09T15:13:35;3.40;;;2.33;;
65315;SDS011;51920;53.952;10.292;2022-09-09T15:18:31;3.03;;;2.45;;
65315;SDS011;51920;53.952;10.292;2022-09-09T15:20:58;3.55;;;2.50;;
65315;SDS011;51920;53.952;10.292;2022-09-09T15:23:25;3.53;;;2.97;;
65315;SDS011;51920;53.952;10.292;2022-09-09T15:25:51;3.80;;;3.10;;
65315;SDS011;51920;53.952;10.292;2022-09-09T15:28:17;4.70;;;2.50;;
65315;SDS011;51920;53.952;10.292;2022-09-09T15:30:42;3.47;;;2.50;;
65315;SDS011;51920;53.952;10.292;2022-09-09T15:33:09;4.78;;;3.10;;
65315;SDS011;51920;53.952;10.292;2022-09-09T15:35:35;3.30;;;2.92;;
65315;SDS011;51920;53.952;10.292;2022-09-09T15:38:04;3.53;;;2.70;;
65315;SDS011;51920;53.952;10.292;2022-09-09T15:40:32;2.53;;;2.13;;
65315;SDS011;51920;53.952;10.292;2022-09-09T15:42:58;2.40;;;2.20;;
65315;SDS011;51920;53.952;10.292;2022-09-09T15:45:23;4.15;;;2.40;;
65315;SDS011;51920;53.952;10.292;2022-09-09T15:47:49;3.53;;;2.30;;
65315;SDS011;51920;53.952;10.292;2022-09-09T15:50:14;3.57;;;2.57;;
65315;SDS011;51920;53.952;10.292;2022-09-09T15:52:40;3.83;;;2.30;;
65315;SDS011;51920;53.952;10.292;2022-09-09T15:55:05;5.73;;;2.60;;
65315;SDS011;51920;53.952;10.292;2022-09-09T15:57:31;3.83;;;2.70;;
65315;SDS011;51920;53.952;10.292;2022-09-09T15:59:57;5.30;;;2.80;;
65315;SDS011;51920;53.952;10.292;2022-09-09T16:02:24;4.90;;;2.60;;
65315;SDS011;51920;53.952;10.292;2022-09-09T16:04:49;2.97;;;2.63;;
65315;SDS011;51920;53.952;10.292;2022-09-09T16:07:15;4.10;;;2.70;;
65315;SDS011;51920;53.952;10.292;2022-09-09T16:09:40;4.27;;;2.50;;
65315;SDS011;51920;53.952;10.292;2022-09-09T16:12:08;3.20;;;2.45;;
65315;SDS011;51920;53.952;10.292;2022-09-09T16:14:37;3.63;;;2.78;;
65315;SDS011;51920;53.952;10.292;2022-09-09T16:17:04;3.88;;;2.30;;
65315;SDS011;51920;53.952;10.292;2022-09-09T16:19:30;2.80;;;2.20;;
65315;SDS011;51920;53.952;10.292;2022-09-09T16:21:56;3.40;;;2.03;;
65315;SDS011;51920;53.952;10.292;2022-09-09T16:24:22;4.28;;;2.20;;
65315;SDS011;51920;53.952;10.292;2022-09-09T16:26:52;3.93;;;2.20;;
65315;SDS011;51920;53.952;10.292;2022-09-09T16:29:19;6.93;;;2.33;;
65315;SDS011;51920;53.952;10.292;2022-09-09T16:31:47;2.60;;;2.30;;
65315;SDS011;51920;53.952;10.292;2022-09-09T16:34:13;3.15;;;2.20;;